Time;durP1;ratioP1;P1;durP2;ratioP2;P2;SDS_P1;SDS_P2;PMS_P1;PMS_P2;Temp;Humidity;BMP_temperature;BMP_pressure;BME280_temperature;BME280_humidity;BME280_pressure;Samples;Min_cycle;Max_cycle;Signal;HPM_P1;HPM_P2
2023/09/06 00:00:32;;;;;;;5.75;4.15;;;20.00;99.90;;;;;;5040186;28;21027;-59
2023/09/06 00:02:58;;;;;;;5.57;4.33;;;20.00;99.90;;;;;;5036261;28;20243;-67
2023/09/06 00:05:24;;;;;;;4.80;4.40;;;20.00;99.90;;;;;;5040282;28;20206;-67
2023/09/06 00:07:49;;;;;;;5.73;4.63;;;19.90;99.90;;;;;;5033740;28;20197;-66
2023/09/06 00:10:15;;;;;;;5.00;4.13;;;19.90;99.90;;;;;;5029927;28;20688;-65
2023/09/06 00:12:41;;;;;;;5.27;4.77;;;19.90;99.90;;;;;;5021145;28;20199;-57
2023/09/06 00:15:08;;;;;;;4.50;4.10;;;19.90;99.90;;;;;;5044731;28;20689;-56
2023/09/06 00:17:37;;;;;;;6.07;4.40;;;19.70;99.90;;;;;;5037102;28;20209;-57
2023/09/06 00:20:19;;;;;;;5.20;4.60;;;19.70;99.90;;;;;;5041125;28;20591;-57
2023/09/06 00:22:45;;;;;;;5.10;4.37;;;19.70;99.90;;;;;;5037288;28;20203;-57
2023/09/06 00:25:11;;;;;;;7.00;4.60;;;19.70;99.90;;;;;;5038205;28;20278;-56
2023/09/06 00:27:36;;;;;;;7.67;5.70;;;19.60;99.90;;;;;;5020453;28;20194;-57
2023/09/06 00:30:02;;;;;;;6.57;5.43;;;19.60;99.90;;;;;;5022799;28;20202;-70
2023/09/06 00:32:27;;;;;;;6.47;5.00;;;19.50;99.90;;;;;;5032099;28;20191;-56
2023/09/06 00:34:53;;;;;;;5.10;4.40;;;19.50;99.90;;;;;;5037302;28;20208;-59
2023/09/06 00:37:18;;;;;;;5.20;4.70;;;19.50;99.90;;;;;;5033017;28;20862;-60
2023/09/06 00:39:45;;;;;;;4.13;3.83;;;19.50;99.90;;;;;;5020151;28;20694;-58
2023/09/06 00:42:10;;;;;;;7.63;5.60;;;19.50;99.90;;;;;;5035042;28;20206;-56
2023/09/06 00:44:36;;;;;;;5.93;5.13;;;19.40;99.90;;;;;;5032913;28;20240;-56
2023/09/06 00:47:02;;;;;;;7.67;5.07;;;19.40;99.90;;;;;;5036128;28;20242;-56
2023/09/06 00:49:27;;;;;;;5.97;5.00;;;19.40;99.90;;;;;;5035881;28;20234;-61
2023/09/06 00:51:53;;;;;;;6.40;5.13;;;19.30;99.90;;;;;;5034695;28;20763;-57
2023/09/06 00:54:18;;;;;;;5.93;5.17;;;19.30;99.90;;;;;;5040060;28;20201;-56
2023/09/06 00:56:44;;;;;;;4.77;4.37;;;19.30;99.90;;;;;;5012600;28;20542;-57
2023/09/06 00:59:12;;;;;;;8.10;5.27;;;19.20;99.90;;;;;;5035775;28;20199;-64
2023/09/06 01:01:38;;;;;;;5.57;4.93;;;19.20;99.90;;;;;;5035915;28;20205;-65
2023/09/06 01:04:03;;;;;;;6.07;5.40;;;19.20;99.90;;;;;;5034668;28;20216;-66
2023/09/06 01:06:31;;;;;;;8.20;4.73;;;19.10;99.90;;;;;;5034571;28;20213;-64
2023/09/06 01:08:58;;;;;;;6.13;5.53;;;19.10;99.90;;;;;;5036256;28;20254;-64
2023/09/06 01:11:25;;;;;;;5.57;5.03;;;19.00;99.90;;;;;;5015261;28;20201;-65
2023/09/06 01:13:52;;;;;;;5.40;4.90;;;19.00;99.90;;;;;;5036077;28;20195;-60
2023/09/06 01:16:34;;;;;;;5.73;5.13;;;19.00;99.90;;;;;;5037153;28;20784;-65
2023/09/06 01:19:00;;;;;;;5.90;4.93;;;19.00;99.90;;;;;;5035747;28;20213;-71
2023/09/06 01:21:35;;;;;;;6.07;5.17;;;18.90;99.90;;;;;;5015512;28;20214;-58
2023/09/06 01:24:02;;;;;;;5.67;5.20;;;18.80;99.90;;;;;;5025644;28;20720;-57
2023/09/06 01:26:28;;;;;;;4.83;4.43;;;18.80;99.90;;;;;;5019810;28;20240;-57
2023/09/06 01:28:54;;;;;;;9.43;5.80;;;18.80;99.90;;;;;;5029788;28;20212;-58
2023/09/06 01:31:19;;;;;;;5.43;4.67;;;18.70;99.90;;;;;;5032803;28;20215;-59
2023/09/06 01:33:45;;;;;;;5.20;4.70;;;18.70;99.90;;;;;;5033016;28;20195;-57
2023/09/06 01:36:10;;;;;;;5.60;4.73;;;18.70;99.90;;;;;;5029189;28;20256;-57
2023/09/06 01:38:36;;;;;;;5.60;5.00;;;18.80;99.90;;;;;;5035215;28;20212;-57
2023/09/06 01:41:03;;;;;;;8.20;5.63;;;18.80;99.90;;;;;;5032747;28;20220;-56
2023/09/06 01:43:28;;;;;;;5.83;5.33;;;18.80;99.90;;;;;;5017706;28;20793;-57
2023/09/06 01:45:55;;;;;;;6.73;4.53;;;18.80;99.90;;;;;;5031204;28;20304;-57
2023/09/06 01:48:21;;;;;;;5.63;5.03;;;18.70;99.90;;;;;;5036575;28;20229;-57
2023/09/06 01:50:47;;;;;;;6.33;5.83;;;18.60;99.90;;;;;;5037708;28;20234;-59
2023/09/06 01:53:16;;;;;;;5.90;5.43;;;18.60;99.90;;;;;;5035039;28;20195;-57
2023/09/06 01:55:42;;;;;;;7.30;5.27;;;18.50;99.90;;;;;;5037133;28;20282;-57
2023/09/06 01:58:09;;;;;;;5.40;4.90;;;18.50;99.90;;;;;;5038996;28;20199;-57
2023/09/06 02:00:37;;;;;;;5.50;4.73;;;18.50;99.90;;;;;;5030067;28;20210;-57
2023/09/06 02:03:02;;;;;;;5.77;5.17;;;18.50;99.90;;;;;;5030591;28;20195;-56
2023/09/06 02:05:30;;;;;;;6.43;5.07;;;18.60;99.90;;;;;;5034200;28;20224;-56
2023/09/06 02:07:55;;;;;;;10.17;5.90;;;18.60;99.90;;;;;;5033784;28;20192;-56
2023/09/06 02:10:21;;;;;;;7.00;5.13;;;18.50;99.90;;;;;;5036164;28;20195;-57
2023/09/06 02:12:46;;;;;;;6.07;5.30;;;18.50;99.90;;;;;;5035840;28;20262;-57
2023/09/06 02:15:15;;;;;;;7.50;4.83;;;18.40;99.90;;;;;;5044442;28;20200;-57
2023/09/06 02:17:44;;;;;;;6.83;5.57;;;18.40;99.90;;;;;;5037682;28;20209;-57
2023/09/06 02:20:17;;;;;;;5.67;5.17;;;18.40;99.90;;;;;;5018840;28;20581;-56
2023/09/06 02:22:56;;;;;;;6.07;5.33;;;18.30;99.90;;;;;;5039304;28;20242;-57
2023/09/06 02:25:30;;;;;;;5.57;5.07;;;18.40;99.90;;;;;;5038062;28;20201;-57
2023/09/06 02:27:57;;;;;;;6.40;5.47;;;18.30;99.90;;;;;;5030427;28;20195;-57
2023/09/06 02:30:22;;;;;;;8.17;5.93;;;18.30;99.90;;;;;;5042210;28;20212;-56
2023/09/06 02:32:49;;;;;;;6.83;5.70;;;18.30;99.90;;;;;;5027797;28;20202;-56
2023/09/06 02:35:14;;;;;;;8.20;6.07;;;18.30;99.90;;;;;;5035624;28;20460;-56
2023/09/06 02:37:40;;;;;;;9.53;6.20;;;18.20;99.90;;;;;;5021386;28;20209;-57
2023/09/06 02:40:13;;;;;;;7.87;6.53;;;18.10;99.90;;;;;;5041652;28;20302;-62
2023/09/06 02:42:43;;;;;;;6.73;6.13;;;18.10;99.90;;;;;;5038901;28;20210;-57
2023/09/06 02:45:11;;;;;;;8.80;5.63;;;18.10;99.90;;;;;;5038577;28;20574;-56
2023/09/06 02:47:39;;;;;;;8.27;5.77;;;18.00;99.90;;;;;;5041222;28;20215;-58
2023/09/06 02:50:06;;;;;;;6.10;5.13;;;17.90;99.90;;;;;;5042587;28;20217;-56
2023/09/06 02:52:35;;;;;;;5.67;5.17;;;17.80;99.90;;;;;;5040749;28;20283;-55
2023/09/06 02:55:05;;;;;;;6.60;5.47;;;17.90;99.90;;;;;;5035912;28;20205;-54
2023/09/06 02:57:31;;;;;;;7.07;5.83;;;17.90;99.90;;;;;;5020024;28;20566;-56
2023/09/06 02:59:57;;;;;;;6.07;5.47;;;17.90;99.90;;;;;;5039236;28;20304;-56
2023/09/06 03:02:22;;;;;;;6.13;5.50;;;17.80;99.90;;;;;;5036717;28;20266;-56
2023/09/06 03:04:57;;;;;;;8.13;6.07;;;17.80;99.90;;;;;;5036764;28;20232;-56
2023/09/06 03:07:22;;;;;;;6.27;5.73;;;17.80;99.90;;;;;;5038364;28;20215;-56
2023/09/06 03:09:49;;;;;;;6.23;4.93;;;17.80;99.90;;;;;;5045462;28;20212;-56
2023/09/06 03:12:16;;;;;;;5.77;5.27;;;17.80;99.90;;;;;;5034342;28;21013;-56
2023/09/06 03:14:44;;;;;;;6.53;5.93;;;17.80;99.90;;;;;;5023935;28;20523;-57
2023/09/06 03:17:10;;;;;;;8.03;5.60;;;17.70;99.90;;;;;;5042168;28;20267;-56
2023/09/06 03:19:41;;;;;;;7.83;5.60;;;17.70;99.90;;;;;;5044036;28;20227;-56
2023/09/06 03:22:09;;;;;;;7.33;5.50;;;17.70;99.90;;;;;;5039890;28;20191;-56
2023/09/06 03:24:40;;;;;;;6.17;5.67;;;17.70;99.90;;;;;;5026686;28;20198;-56
2023/09/06 03:27:07;;;;;;;5.30;4.80;;;17.70;99.90;;;;;;5035391;28;20731;-56
2023/09/06 03:29:36;;;;;;;8.23;5.73;;;17.60;99.90;;;;;;5038733;28;20200;-56
2023/09/06 03:32:03;;;;;;;6.27;5.20;;;17.50;99.90;;;;;;5034275;28;20199;-55
2023/09/06 03:34:28;;;;;;;6.27;5.67;;;17.50;99.90;;;;;;5037839;28;20196;-61
2023/09/06 03:36:55;;;;;;;7.20;5.83;;;17.50;99.90;;;;;;5032315;28;20566;-59
2023/09/06 03:39:21;;;;;;;6.77;5.60;;;17.50;99.90;;;;;;5037352;28;20232;-59
2023/09/06 03:41:48;;;;;;;9.00;5.80;;;17.50;99.90;;;;;;5037940;28;20693;-57
2023/09/06 03:44:13;;;;;;;7.03;6.20;;;17.50;99.90;;;;;;5037039;28;20976;-57
2023/09/06 03:46:39;;;;;;;5.50;5.00;;;17.40;99.90;;;;;;5037147;28;20193;-57
2023/09/06 03:49:06;;;;;;;6.17;5.57;;;17.40;99.90;;;;;;5042003;28;20202;-56
2023/09/06 03:51:32;;;;;;;8.03;6.57;;;17.40;99.90;;;;;;5035070;28;20566;-56
2023/09/06 03:54:00;;;;;;;8.17;6.50;;;17.40;99.90;;;;;;5037006;28;20205;-57
2023/09/06 03:56:26;;;;;;;7.27;6.57;;;17.30;99.90;;;;;;5039142;28;20192;-57
2023/09/06 03:58:54;;;;;;;7.30;6.60;;;17.30;99.90;;;;;;5037707;28;20223;-58
2023/09/06 04:01:20;;;;;;;7.10;6.50;;;17.30;99.90;;;;;;5037278;28;20394;-57
2023/09/06 04:03:50;;;;;;;9.60;6.37;;;17.30;99.90;;;;;;5042248;28;20297;-57
2023/09/06 04:06:16;;;;;;;7.57;6.67;;;17.30;99.90;;;;;;5035638;28;20214;-57
2023/09/06 04:08:42;;;;;;;8.17;6.73;;;17.30;99.90;;;;;;5036129;28;20198;-56
2023/09/06 04:11:09;;;;;;;8.03;6.40;;;17.30;99.90;;;;;;5034702;28;20288;-57
2023/09/06 04:13:35;;;;;;;8.63;7.20;;;17.30;99.90;;;;;;5037430;28;20189;-56
2023/09/06 04:16:01;;;;;;;7.03;6.27;;;17.30;99.90;;;;;;5033803;28;20200;-57
2023/09/06 04:18:28;;;;;;;9.73;6.27;;;17.30;99.90;;;;;;5018548;28;20197;-57
2023/09/06 04:20:53;;;;;;;7.63;5.83;;;17.30;99.90;;;;;;5037089;28;20228;-56
2023/09/06 04:23:19;;;;;;;8.90;6.63;;;17.30;99.90;;;;;;5041503;28;20528;-56
2023/09/06 04:25:44;;;;;;;11.90;5.93;;;17.30;99.90;;;;;;5032981;28;20638;-56
2023/09/06 04:28:14;;;;;;;7.73;6.10;;;17.20;99.90;;;;;;5037372;28;20191;-56
2023/09/06 04:30:41;;;;;;;7.30;6.03;;;17.20;99.90;;;;;;5040796;28;20214;-56
2023/09/06 04:33:14;;;;;;;8.37;7.03;;;17.20;99.90;;;;;;5042130;28;20255;-56
2023/09/06 04:35:44;;;;;;;8.03;6.70;;;17.20;99.90;;;;;;5036726;28;20278;-56
2023/09/06 04:38:14;;;;;;;8.70;6.33;;;17.20;99.90;;;;;;5037881;28;20187;-57
2023/09/06 04:40:40;;;;;;;6.93;6.23;;;17.10;99.90;;;;;;5035828;28;20262;-56
2023/09/06 04:43:07;;;;;;;11.67;6.10;;;17.10;99.90;;;;;;5042968;28;20234;-56
2023/09/06 04:45:33;;;;;;;7.90;7.10;;;17.10;99.90;;;;;;5036806;28;20214;-57
2023/09/06 04:47:59;;;;;;;9.70;7.00;;;17.10;99.90;;;;;;5032435;28;20219;-56
2023/09/06 04:50:24;;;;;;;6.97;6.17;;;17.10;99.90;;;;;;5042524;28;20211;-57
2023/09/06 04:52:53;;;;;;;7.93;7.07;;;17.10;99.90;;;;;;5040959;28;20206;-56
2023/09/06 04:55:19;;;;;;;7.70;6.93;;;17.10;99.90;;;;;;5017388;28;20759;-56
2023/09/06 04:57:46;;;;;;;7.50;6.40;;;17.10;99.90;;;;;;5034259;28;20203;-56
2023/09/06 05:00:18;;;;;;;9.00;6.73;;;17.10;99.90;;;;;;5015149;28;20216;-57
2023/09/06 05:02:45;;;;;;;7.40;6.53;;;17.10;99.90;;;;;;5029496;28;20759;-56
2023/09/06 05:05:11;;;;;;;7.53;6.77;;;17.10;99.90;;;;;;5030117;28;20197;-56
2023/09/06 05:07:37;;;;;;;7.13;6.53;;;17.10;99.90;;;;;;5034430;28;20249;-56
2023/09/06 05:10:03;;;;;;;7.53;6.73;;;17.10;99.90;;;;;;5036411;28;20223;-56
2023/09/06 05:12:29;;;;;;;7.73;6.93;;;17.20;99.90;;;;;;5029774;28;20615;-56
2023/09/06 05:14:55;;;;;;;7.73;6.50;;;17.20;99.90;;;;;;5035974;28;20920;-56
2023/09/06 05:17:20;;;;;;;7.50;6.70;;;17.20;99.90;;;;;;5035093;28;20279;-56
2023/09/06 05:19:50;;;;;;;8.13;7.33;;;17.20;99.90;;;;;;5031931;28;20225;-56
2023/09/06 05:22:16;;;;;;;7.07;6.37;;;17.20;99.90;;;;;;5036319;28;20212;-56
2023/09/06 05:24:41;;;;;;;7.23;6.53;;;17.20;99.90;;;;;;5035816;28;20195;-57
2023/09/06 05:27:07;;;;;;;8.03;7.23;;;17.20;99.90;;;;;;5031679;28;20210;-56
2023/09/06 05:29:32;;;;;;;7.00;6.30;;;17.20;99.90;;;;;;5040964;28;20220;-57
2023/09/06 05:31:58;;;;;;;9.47;6.60;;;17.30;99.90;;;;;;5041685;28;20204;-56
2023/09/06 05:34:24;;;;;;;10.10;7.63;;;17.30;99.90;;;;;;5030308;28;20208;-56
2023/09/06 05:36:49;;;;;;;7.90;7.20;;;17.30;99.90;;;;;;5039501;28;20212;-56
2023/09/06 05:39:15;;;;;;;10.83;6.80;;;17.40;99.90;;;;;;5038199;28;20283;-56
2023/09/06 05:41:40;;;;;;;7.67;7.07;;;17.40;99.90;;;;;;5030147;28;21032;-56
2023/09/06 05:44:07;;;;;;;9.87;7.40;;;17.40;99.90;;;;;;5028930;28;20577;-56
2023/09/06 05:46:33;;;;;;;8.23;6.87;;;17.40;99.90;;;;;;5034258;28;20741;-56
2023/09/06 05:48:58;;;;;;;8.37;6.63;;;17.50;99.90;;;;;;5034268;28;20700;-56
2023/09/06 05:51:24;;;;;;;6.80;6.10;;;17.50;99.90;;;;;;5012439;28;20203;-57
2023/09/06 05:53:49;;;;;;;9.20;7.10;;;17.60;99.90;;;;;;5021523;28;20842;-56
2023/09/06 05:56:15;;;;;;;9.60;8.33;;;17.60;99.90;;;;;;5013725;28;20248;-56
2023/09/06 05:58:40;;;;;;;8.10;7.27;;;17.70;99.90;;;;;;5039823;28;20351;-57
2023/09/06 06:01:06;;;;;;;9.37;7.50;;;17.70;99.90;;;;;;5035540;28;20698;-56
2023/09/06 06:03:32;;;;;;;8.60;7.50;;;17.80;99.90;;;;;;5044919;28;20223;-57
2023/09/06 06:05:58;;;;;;;8.23;7.37;;;17.80;99.90;;;;;;5039897;28;20208;-56
2023/09/06 06:08:23;;;;;;;9.43;7.37;;;17.80;99.90;;;;;;5043042;28;20207;-56
2023/09/06 06:10:49;;;;;;;10.17;7.60;;;17.90;99.90;;;;;;5041185;28;20646;-64
2023/09/06 06:13:14;;;;;;;8.17;7.47;;;18.00;99.90;;;;;;5039332;28;20733;-59
2023/09/06 06:15:40;;;;;;;13.33;7.93;;;18.00;99.90;;;;;;5040620;28;20230;-59
2023/09/06 06:18:05;;;;;;;10.43;7.93;;;18.00;99.90;;;;;;5043948;28;20724;-56
2023/09/06 06:20:31;;;;;;;9.37;7.77;;;18.10;99.90;;;;;;5039970;28;20218;-57
2023/09/06 06:22:58;;;;;;;10.37;7.93;;;18.20;99.90;;;;;;5043398;28;20213;-57
2023/09/06 06:25:24;;;;;;;11.07;7.90;;;18.20;99.90;;;;;;5039366;28;20230;-56
2023/09/06 06:27:52;;;;;;;11.57;8.03;;;18.30;99.90;;;;;;5038832;28;20246;-57
2023/09/06 06:30:18;;;;;;;13.20;8.33;;;18.40;99.90;;;;;;5040226;28;20766;-56
2023/09/06 06:32:44;;;;;;;15.00;9.30;;;18.50;99.90;;;;;;5041625;28;20204;-57
2023/09/06 06:35:11;;;;;;;9.50;7.53;;;18.60;99.90;;;;;;5041063;28;20203;-56
2023/09/06 06:37:37;;;;;;;10.00;7.67;;;18.70;99.90;;;;;;5034832;28;20270;-56
2023/09/06 06:40:05;;;;;;;9.77;7.83;;;18.80;99.90;;;;;;5023338;28;20919;-56
2023/09/06 06:42:31;;;;;;;8.80;7.90;;;18.90;99.90;;;;;;5042924;28;20204;-57
2023/09/06 06:44:57;;;;;;;8.43;7.63;;;19.10;99.90;;;;;;5031643;28;20212;-56
2023/09/06 06:47:22;;;;;;;7.60;6.90;;;19.20;99.90;;;;;;5033320;28;20221;-56
2023/09/06 06:49:52;;;;;;;15.53;8.07;;;19.30;99.90;;;;;;5044781;28;20251;-56
2023/09/06 06:52:18;;;;;;;7.83;6.87;;;19.40;99.90;;;;;;5036312;28;20253;-56
2023/09/06 06:54:45;;;;;;;9.73;7.93;;;19.40;99.90;;;;;;5039835;28;20604;-56
2023/09/06 06:57:11;;;;;;;10.33;8.47;;;19.50;99.90;;;;;;5040365;28;20201;-57
2023/09/06 06:59:37;;;;;;;8.13;7.33;;;19.60;99.90;;;;;;5038565;28;20211;-57
2023/09/06 07:02:02;;;;;;;8.63;7.73;;;19.70;99.90;;;;;;5016018;28;20731;-56
2023/09/06 07:04:28;;;;;;;9.10;7.30;;;19.80;99.90;;;;;;5020759;28;20205;-57
2023/09/06 07:06:53;;;;;;;8.83;7.80;;;19.80;99.90;;;;;;5034499;28;20199;-57
2023/09/06 07:09:19;;;;;;;10.10;7.83;;;19.90;99.90;;;;;;5042910;28;20234;-56
2023/09/06 07:11:44;;;;;;;8.43;7.67;;;20.00;99.90;;;;;;5044201;28;20193;-57
2023/09/06 07:14:10;;;;;;;8.57;7.23;;;20.10;99.90;;;;;;5034224;28;20225;-57
2023/09/06 07:16:35;;;;;;;11.00;7.87;;;20.20;99.90;;;;;;5038038;28;20202;-60
2023/09/06 07:19:01;;;;;;;7.80;7.00;;;20.10;99.90;;;;;;5038440;28;20252;-64
2023/09/06 07:21:28;;;;;;;11.23;7.77;;;20.20;99.90;;;;;;5038324;28;20214;-57
2023/09/06 07:23:53;;;;;;;9.73;6.87;;;20.30;99.90;;;;;;5037565;28;20199;-56
2023/09/06 07:26:19;;;;;;;10.13;8.43;;;20.40;99.90;;;;;;5035078;28;20202;-57
2023/09/06 07:28:46;;;;;;;11.60;7.37;;;20.50;99.90;;;;;;5021533;28;20281;-59
2023/09/06 07:31:12;;;;;;;12.43;6.90;;;20.50;99.90;;;;;;5034607;28;20195;-61
2023/09/06 07:33:38;;;;;;;9.20;7.17;;;20.50;99.90;;;;;;5038821;28;20209;-62
2023/09/06 07:36:04;;;;;;;14.40;7.03;;;20.60;99.90;;;;;;5038049;28;20213;-60
2023/09/06 07:38:30;;;;;;;9.60;6.83;;;20.70;99.90;;;;;;5034775;28;20202;-53
2023/09/06 07:41:04;;;;;;;11.67;7.50;;;20.80;99.90;;;;;;5041427;28;20230;-54
2023/09/06 07:43:31;;;;;;;7.22;6.53;;;20.80;99.90;;;;;;5044243;28;20202;-58
2023/09/06 07:45:57;;;;;;;10.13;7.30;;;20.90;99.90;;;;;;5029146;28;20210;-59
2023/09/06 07:48:29;;;;;;;8.77;6.60;;;21.00;99.90;;;;;;5039643;28;20288;-54
2023/09/06 07:50:55;;;;;;;7.77;6.73;;;21.10;99.90;;;;;;5026626;28;20230;-54
2023/09/06 07:53:20;;;;;;;10.10;7.13;;;21.10;99.90;;;;;;5039250;28;20218;-56
2023/09/06 07:55:46;;;;;;;8.23;7.20;;;21.20;99.90;;;;;;5032198;28;20194;-56
2023/09/06 07:58:13;;;;;;;7.57;6.07;;;21.20;99.90;;;;;;5035696;28;20289;-54
2023/09/06 08:00:38;;;;;;;10.85;7.55;;;21.30;99.90;;;;;;5041681;28;20735;-54
2023/09/06 08:03:04;;;;;;;7.25;6.05;;;21.40;99.90;;;;;;5034870;28;20448;-54
2023/09/06 08:05:31;;;;;;;6.57;5.63;;;21.50;99.90;;;;;;5035729;28;20268;-55
2023/09/06 08:07:57;;;;;;;6.88;6.22;;;21.50;99.90;;;;;;5047363;28;20207;-55
2023/09/06 08:10:23;;;;;;;8.20;6.45;;;21.50;99.90;;;;;;5037026;28;20209;-55
2023/09/06 08:12:48;;;;;;;12.05;6.50;;;21.60;99.90;;;;;;5032959;28;20195;-55
2023/09/06 08:15:14;;;;;;;6.70;6.00;;;21.70;99.90;;;;;;5041177;28;20208;-56
2023/09/06 08:17:39;;;;;;;9.82;6.40;;;21.80;99.90;;;;;;5038768;28;20199;-53
2023/09/06 08:20:08;;;;;;;9.97;5.93;;;21.90;99.90;;;;;;5041567;28;20352;-56
2023/09/06 08:22:35;;;;;;;7.30;6.68;;;21.90;99.90;;;;;;5040462;28;20194;-56
2023/09/06 08:25:01;;;;;;;8.73;7.05;;;22.00;99.90;;;;;;5037068;28;20260;-57
2023/09/06 08:27:27;;;;;;;10.02;7.05;;;22.00;99.90;;;;;;5041685;28;20197;-56
2023/09/06 08:29:52;;;;;;;9.77;6.27;;;22.00;99.90;;;;;;5037122;28;20222;-55
2023/09/06 08:32:18;;;;;;;6.55;5.90;;;22.10;99.90;;;;;;5034289;28;20199;-55
2023/09/06 08:34:43;;;;;;;6.93;5.37;;;22.20;99.90;;;;;;5036655;28;20606;-55
2023/09/06 08:37:08;;;;;;;7.63;6.88;;;22.20;99.90;;;;;;5036573;28;20212;-56
2023/09/06 08:39:34;;;;;;;6.65;5.90;;;22.20;99.90;;;;;;5029016;28;20211;-57
2023/09/06 08:42:01;;;;;;;6.55;5.88;;;22.20;99.90;;;;;;5044365;28;20198;-54
2023/09/06 08:44:28;;;;;;;9.90;5.47;;;22.30;99.90;;;;;;5040098;28;20210;-55
2023/09/06 08:46:57;;;;;;;7.63;5.85;;;22.40;99.90;;;;;;5034648;28;20253;-57
2023/09/06 08:49:23;;;;;;;5.97;5.47;;;22.50;99.90;;;;;;5018478;28;20293;-54
2023/09/06 08:51:49;;;;;;;7.10;6.15;;;22.60;99.90;;;;;;5032276;28;20292;-55
2023/09/06 08:54:15;;;;;;;7.78;5.30;;;22.70;99.90;;;;;;5018677;28;20214;-56
2023/09/06 08:56:43;;;;;;;5.97;5.40;;;22.90;99.90;;;;;;5041323;28;20198;-57
2023/09/06 08:59:08;;;;;;;6.95;5.50;;;23.00;99.90;;;;;;5036312;28;20297;-56
2023/09/06 09:01:34;;;;;;;8.85;5.30;;;23.10;99.90;;;;;;5038325;28;20238;-54
2023/09/06 09:03:59;;;;;;;5.55;5.00;;;23.00;99.90;;;;;;5029770;28;20203;-55
2023/09/06 09:06:25;;;;;;;9.25;5.13;;;23.10;99.90;;;;;;5034074;28;20943;-60
2023/09/06 09:08:52;;;;;;;5.45;4.95;;;23.10;99.90;;;;;;5034474;28;20233;-65
2023/09/06 09:11:19;;;;;;;6.18;4.47;;;23.10;99.90;;;;;;5036327;28;20692;-57
2023/09/06 09:13:45;;;;;;;6.90;5.50;;;23.30;99.90;;;;;;5037162;28;20198;-56
2023/09/06 09:16:17;;;;;;;6.68;5.40;;;23.50;99.90;;;;;;5033709;28;20198;-57
2023/09/06 09:18:44;;;;;;;8.07;4.95;;;23.60;99.90;;;;;;5038027;28;20203;-57
2023/09/06 09:21:11;;;;;;;7.95;5.40;;;23.60;99.90;;;;;;5040596;28;20540;-57
2023/09/06 09:23:55;;;;;;;5.95;4.65;;;23.60;99.90;;;;;;5019145;28;20194;-57
2023/09/06 09:26:22;;;;;;;5.57;5.07;;;23.60;99.90;;;;;;5034366;28;20326;-57
2023/09/06 09:28:48;;;;;;;10.68;4.65;;;23.70;99.90;;;;;;5027422;28;20544;-63
2023/09/06 09:31:15;;;;;;;5.68;5.03;;;23.90;99.30;;;;;;5035190;28;20268;-58
2023/09/06 09:33:44;;;;;;;9.23;4.57;;;23.90;99.90;;;;;;5015669;28;20245;-57
2023/09/06 09:36:10;;;;;;;5.70;4.22;;;23.90;98.90;;;;;;5040406;28;20215;-64
2023/09/06 09:38:39;;;;;;;6.88;5.60;;;23.90;99.10;;;;;;5034830;28;20785;-55
2023/09/06 09:41:06;;;;;;;6.18;5.05;;;23.90;99.80;;;;;;5041854;28;21044;-53
2023/09/06 09:43:32;;;;;;;16.48;6.07;;;23.70;99.80;;;;;;5036119;28;20249;-59
2023/09/06 09:45:58;;;;;;;11.63;5.78;;;23.20;99.90;;;;;;5039238;28;20806;-57
2023/09/06 09:48:29;;;;;;;12.48;5.68;;;23.00;99.90;;;;;;5034888;28;20226;-56
2023/09/06 09:50:55;;;;;;;8.25;5.50;;;22.90;99.90;;;;;;5019574;28;20216;-57
2023/09/06 09:53:23;;;;;;;5.90;5.05;;;22.70;99.90;;;;;;5039678;28;20192;-57
2023/09/06 09:55:51;;;;;;;8.07;5.05;;;22.80;99.90;;;;;;5039547;28;20195;-55
2023/09/06 09:58:18;;;;;;;12.38;5.75;;;22.90;99.90;;;;;;5014752;28;20199;-54
2023/09/06 10:00:44;;;;;;;5.88;4.97;;;23.30;99.90;;;;;;5019409;28;20211;-56
2023/09/06 10:03:10;;;;;;;4.82;4.32;;;23.60;99.90;;;;;;5032719;28;20199;-53
2023/09/06 10:05:36;;;;;;;6.45;4.63;;;23.70;99.90;;;;;;5031751;28;20208;-60
2023/09/06 10:08:04;;;;;;;6.97;5.22;;;24.00;99.90;;;;;;5039543;28;20280;-56
2023/09/06 10:10:33;;;;;;;5.15;4.75;;;24.00;99.90;;;;;;5039128;28;20635;-57
2023/09/06 10:13:04;;;;;;;6.53;5.78;;;23.70;99.90;;;;;;5034813;28;20203;-55
2023/09/06 10:15:32;;;;;;;8.15;5.45;;;23.80;99.90;;;;;;5037528;28;20205;-55
2023/09/06 10:17:58;;;;;;;6.68;5.10;;;24.00;99.90;;;;;;5013015;28;20206;-55
2023/09/06 10:20:24;;;;;;;11.38;5.32;;;24.10;99.80;;;;;;5033692;28;20215;-57
2023/09/06 10:22:53;;;;;;;6.88;5.55;;;23.70;99.90;;;;;;5032610;28;20205;-57
2023/09/06 10:25:19;;;;;;;10.10;5.00;;;23.80;99.70;;;;;;5037545;28;20193;-55
2023/09/06 10:27:55;;;;;;;10.63;6.45;;;24.20;99.90;;;;;;5017390;28;20204;-57
2023/09/06 10:30:45;;;;;;;5.78;4.72;;;24.10;99.90;;;;;;5034686;28;20690;-58
2023/09/06 10:33:33;;;;;;;8.23;5.03;;;24.00;99.90;;;;;;5033049;28;20202;-57
2023/09/06 10:36:04;;;;;;;7.00;5.50;;;24.10;99.50;;;;;;5034109;28;20203;-58
2023/09/06 10:38:30;;;;;;;6.75;5.03;;;24.00;99.90;;;;;;5042325;28;20224;-58
2023/09/06 10:40:55;;;;;;;8.48;4.80;;;24.10;99.90;;;;;;5038605;28;20705;-59
2023/09/06 10:43:52;;;;;;;5.53;4.57;;;24.00;99.90;;;;;;5036189;28;20208;-60
2023/09/06 10:46:18;;;;;;;5.20;4.75;;;24.40;99.90;;;;;;5028411;28;20191;-58
2023/09/06 10:49:12;;;;;;;8.45;5.03;;;24.70;98.40;;;;;;5029725;28;20219;-58
2023/09/06 10:52:08;;;;;;;6.95;4.40;;;25.40;94.30;;;;;;5035104;28;20246;-60
2023/09/06 10:54:38;;;;;;;6.00;5.35;;;25.70;95.00;;;;;;5034675;28;20191;-59
2023/09/06 10:57:08;;;;;;;4.97;4.47;;;25.50;96.40;;;;;;5017526;28;20249;-61
2023/09/06 11:00:17;;;;;;;5.93;4.38;;;25.80;94.00;;;;;;5031892;28;20194;-59
2023/09/06 11:02:42;;;;;;;34.40;8.07;;;26.10;92.40;;;;;;5023093;28;20207;-60
2023/09/06 11:05:09;;;;;;;7.43;4.32;;;26.10;96.00;;;;;;5022818;28;20216;-61
2023/09/06 11:07:45;;;;;;;6.45;4.68;;;25.50;94.70;;;;;;5017733;28;20289;-58
2023/09/06 11:10:13;;;;;;;5.55;4.90;;;25.60;97.00;;;;;;5032614;28;20233;-58
2023/09/06 11:12:39;;;;;;;5.45;4.65;;;25.50;95.30;;;;;;5035962;28;20252;-60
2023/09/06 11:15:05;;;;;;;5.03;4.53;;;25.90;93.10;;;;;;5040987;28;20215;-60
2023/09/06 11:17:32;;;;;;;11.43;5.30;;;26.40;92.70;;;;;;5040149;28;20285;-55
2023/09/06 11:20:10;;;;;;;5.00;4.47;;;26.90;92.60;;;;;;5028984;28;20210;-56
2023/09/06 11:22:35;;;;;;;7.22;4.75;;;27.10;90.60;;;;;;5031390;28;20248;-56
2023/09/06 11:25:01;;;;;;;9.57;5.00;;;26.50;92.10;;;;;;5033953;28;20692;-58
2023/09/06 11:27:33;;;;;;;5.43;3.88;;;26.20;91.90;;;;;;5038427;28;20280;-58
2023/09/06 11:30:21;;;;;;;4.80;4.30;;;26.10;93.70;;;;;;5016310;28;20573;-58
2023/09/06 11:32:48;;;;;;;5.05;4.53;;;27.00;90.90;;;;;;5043332;28;20671;-59
2023/09/06 11:35:14;;;;;;;4.90;4.55;;;26.10;91.40;;;;;;5033831;28;20892;-59
2023/09/06 11:37:46;;;;;;;5.95;4.80;;;26.60;90.60;;;;;;5029455;28;20190;-60
2023/09/06 11:40:15;;;;;;;11.38;5.10;;;26.90;89.20;;;;;;5035037;28;20242;-59
2023/09/06 11:42:47;;;;;;;9.50;5.00;;;26.90;91.30;;;;;;5042927;28;20274;-60
2023/09/06 11:45:16;;;;;;;7.78;4.70;;;26.00;92.80;;;;;;5034751;28;20279;-59
2023/09/06 11:47:49;;;;;;;5.65;4.55;;;26.70;86.50;;;;;;5033509;28;21092;-67
2023/09/06 11:50:21;;;;;;;5.15;4.65;;;26.40;91.70;;;;;;5033895;28;20227;-59
2023/09/06 11:52:53;;;;;;;4.70;4.25;;;26.30;89.60;;;;;;5030949;28;20213;-60
2023/09/06 11:55:21;;;;;;;4.50;4.10;;;26.10;92.10;;;;;;5012131;28;20241;-59
2023/09/06 11:57:56;;;;;;;4.25;3.95;;;26.00;91.30;;;;;;5022490;28;20234;-60
2023/09/06 12:00:27;;;;;;;4.38;3.67;;;27.10;81.30;;;;;;5032750;28;20206;-59
2023/09/06 12:03:01;;;;;;;5.70;4.25;;;27.80;83.40;;;;;;5022910;28;20420;-59
2023/09/06 12:05:27;;;;;;;4.78;4.28;;;27.40;87.70;;;;;;5032867;28;20256;-59
2023/09/06 12:07:56;;;;;;;5.10;4.13;;;27.00;89.60;;;;;;5035003;28;20580;-59
2023/09/06 12:10:22;;;;;;;5.57;4.72;;;27.20;85.60;;;;;;5029913;28;20246;-59
2023/09/06 12:12:49;;;;;;;8.23;4.00;;;27.50;83.20;;;;;;5036031;28;20226;-60
2023/09/06 12:15:22;;;;;;;6.47;4.43;;;27.50;85.70;;;;;;5035272;28;20392;-60
2023/09/06 12:17:49;;;;;;;4.80;3.92;;;26.80;89.10;;;;;;5032117;28;20345;-60
2023/09/06 12:20:18;;;;;;;6.10;4.38;;;27.70;83.00;;;;;;5021615;28;20225;-59
2023/09/06 12:22:45;;;;;;;5.10;4.60;;;28.50;78.00;;;;;;5006469;28;20213;-59
2023/09/06 12:25:13;;;;;;;4.30;3.90;;;29.00;81.00;;;;;;5031639;28;20202;-60
2023/09/06 12:27:39;;;;;;;4.50;4.20;;;29.00;83.00;;;;;;5033153;28;20202;-60
2023/09/06 12:30:05;;;;;;;4.72;4.25;;;28.20;82.70;;;;;;5033041;28;20190;-60
2023/09/06 12:32:31;;;;;;;5.20;4.70;;;27.80;81.70;;;;;;5030005;28;20233;-64
2023/09/06 12:34:57;;;;;;;4.70;4.30;;;27.90;86.00;;;;;;5033763;28;20226;-57
2023/09/06 12:37:24;;;;;;;9.85;4.32;;;28.70;78.70;;;;;;5036993;28;20640;-56
2023/09/06 12:39:50;;;;;;;10.23;4.35;;;28.80;83.80;;;;;;5022768;28;20211;-56
2023/09/06 12:42:15;;;;;;;4.30;3.90;;;29.00;86.60;;;;;;5033821;28;20252;-56
2023/09/06 12:44:41;;;;;;;4.47;3.95;;;28.50;87.10;;;;;;5020280;28;20561;-56
2023/09/06 12:47:16;;;;;;;5.95;4.57;;;28.00;88.90;;;;;;5039140;28;21013;-56